Rockhouse, KY (41561)

8:00 AM EDT on November 01, 2014 (GMT -0400)
Sookeys Creek | Change Station
CLOSE
Current Station
Personal Weather Station
Location: Kentucky, KY
Elevation: 850 ft
Nearby Weather Stations
Active Advisory: Freeze Watch, Winter Weather Advisory Active Notice: Record Report

Elev 850 ft 37.40 °N, 82.54 °W | Updated 1 minute ago

Snow
Snow
37.9 °F
Feels Like 38 °F
N
0.0
Wind Variable Wind from North
Gusts 3.1 mph

Today
High -- | Low -- °F
--% Chance of Precip.
Yesterday
High -- | Low -- °F
Precip. -- in
7:54 AM 6:31 PM
Waxing Gibbous, 66% visible
Pressure 29.90 in
Visibility 1.0 miles
Clouds Overcast 400 ft
Windchill 38 °F
Dew Point 38 °F
Humidity 99%
Rainfall 0.18 in
Snow Depth Not available.
UV 0 out of 12
Pollen .30 out of 12
Air Quality Not available.
Flu Activity Not available.
METAR KLNP 011155Z AUTO 31010G15KT 1SM -SN OVC004 00/00 A2990 RMK AO2

More Conditions Fewer Conditions

Pressure 29.90 in
Visibility 1.0 miles
Clouds Overcast 400 ft
Windchill 38 °F
Dew Point 38 °F
Humidity 99%
Rainfall 0.18 in
Snow Depth Not available.
UV 0 out of 12
Pollen .30 out of 12
Air Quality Not available.
Flu Activity Not available.
METAR KLNP 011155Z AUTO 31010G15KT 1SM -SN OVC004 00/00 A2990 RMK AO2

More Conditions Fewer Conditions

10-Day Weather Forecast

Almanac

Astronomy

Nov. 01, 2014 Rise Set
Actual Time
Civil Twilight
Nautical Twilight
Astronomical Twilight
Moon
Length of Visible Light
Length of Day
Tomorrow will be .
, % of the Moon is Illuminated

Today's Extremes

State Highs State Lows

Community

WunderPhotos

Upload Photos

1,766,907 photos uploaded!

WunderBlogs® & News

Nearby

Air Quality

  Air Quality AQ Index Pollutant
Not available.

Snow Depth

Station Depth Elevation

Earthquake Activity

City Distance Mag. Time & Date
Minimum magnitude displayed is 2.5.

Coastal Water Temperatures

Place Temperature

Nearby Weather Stations